Time;durP1;ratioP1;P1;durP2;ratioP2;P2;SDS_P1;SDS_P2;PMS_P1;PMS_P2;Temp;Humidity;BMP_temperature;BMP_pressure;BME280_temperature;BME280_humidity;BME280_pressure;Samples;Min_cycle;Max_cycle;Signal;HPM_P1;HPM_P2
2022/04/05 00:02:08;;;;;;;;;13.33;11.67;;;;;10.00;66.16;101164.88;5071089;28;45299;-68
2022/04/05 00:04:33;;;;;;;;;12.00;11.50;;;;;10.05;66.08;101157.19;5081910;28;45437;-68
2022/04/05 00:06:59;;;;;;;;;12.00;11.75;;;;;10.06;66.08;101160.78;5064708;28;45532;-68
2022/04/05 00:09:24;;;;;;;;;15.75;12.75;;;;;10.14;66.35;101166.38;5064463;28;45479;-68
2022/04/05 00:11:50;;;;;;;;;14.50;13.75;;;;;10.03;66.40;101156.47;5072879;28;45369;-68
2022/04/05 00:14:15;;;;;;;;;15.25;15.25;;;;;10.11;66.50;101151.22;5064212;28;45673;-68
2022/04/05 00:16:40;;;;;;;;;14.50;14.50;;;;;10.09;66.65;101155.06;5075622;28;45206;-68
2022/04/05 00:19:06;;;;;;;;;13.75;12.75;;;;;10.03;66.78;101159.16;5066850;28;45330;-68
2022/04/05 00:21:31;;;;;;;;;18.00;18.00;;;;;9.92;67.30;101151.13;5075453;28;45194;-68
2022/04/05 00:23:56;;;;;;;;;14.00;12.00;;;;;10.01;67.48;101155.72;5064428;28;45398;-68
2022/04/05 00:26:22;;;;;;;;;11.75;11.75;;;;;9.99;67.65;101157.75;5075299;28;45420;-68
2022/04/05 00:28:48;;;;;;;;;11.50;10.50;;;;;10.01;67.84;101160.28;5088334;27;45419;-68
2022/04/05 00:31:13;;;;;;;;;15.25;14.75;;;;;9.99;67.73;101154.16;5074113;27;45227;-68
2022/04/05 00:33:39;;;;;;;;;15.75;14.00;;;;;10.05;67.32;101159.91;5065637;28;45312;-68
2022/04/05 00:36:05;;;;;;;;;11.75;10.75;;;;;10.07;67.78;101166.06;5070380;28;45500;-68
2022/04/05 00:38:31;;;;;;;;;12.50;11.25;;;;;10.10;67.53;101154.91;5062418;28;46504;-68
2022/04/05 00:40:56;;;;;;;;;10.75;10.75;;;;;10.12;67.59;101152.06;5069099;28;45304;-68
2022/04/05 00:43:21;;;;;;;;;12.50;12.25;;;;;9.99;68.07;101149.59;5064153;28;45299;-68
2022/04/05 00:45:47;;;;;;;;;18.25;16.50;;;;;9.95;68.25;101156.28;5069312;28;45443;-68
2022/04/05 00:48:25;;;;;;;;;15.25;13.75;;;;;9.89;68.93;101151.38;5062271;28;47110;-68
2022/04/05 00:50:50;;;;;;;;;8.50;8.50;;;;;9.84;69.53;101147.34;5066290;28;45491;-68
2022/04/05 00:53:16;;;;;;;;;18.25;17.50;;;;;9.88;69.67;101149.66;5063403;28;45307;-69
2022/04/05 00:55:42;;;;;;;;;11.25;11.25;;;;;9.96;69.83;101155.28;5066524;28;45563;-68
2022/04/05 00:58:09;;;;;;;;;13.50;11.25;;;;;10.02;69.40;101146.59;5077442;28;45528;-69
2022/04/05 01:00:35;;;;;;;;;14.00;14.00;;;;;10.00;69.62;101143.16;5077740;28;45724;-68
2022/04/05 01:03:01;;;;;;;;;14.25;11.00;;;;;9.82;70.50;101144.78;5063558;28;45420;-68
2022/04/05 01:05:27;;;;;;;;;11.00;10.00;;;;;9.93;70.27;101152.00;5066387;28;45544;-68
2022/04/05 01:07:55;;;;;;;;;14.25;13.50;;;;;9.90;70.67;101144.09;5063382;28;46741;-68
2022/04/05 01:10:21;;;;;;;;;13.25;13.25;;;;;9.96;70.71;101149.84;5063595;28;45416;-68
2022/04/05 01:12:48;;;;;;;;;14.00;12.75;;;;;10.00;70.69;101143.16;5088185;27;45370;-68
2022/04/05 01:15:13;;;;;;;;;17.00;12.00;;;;;10.00;71.32;101148.59;5066469;28;45240;-68
2022/04/05 01:17:40;;;;;;;;;12.00;12.00;;;;;9.84;71.95;101147.34;5073757;28;46804;-68
2022/04/05 01:20:05;;;;;;;;;17.25;15.00;;;;;9.84;71.95;101139.22;5064463;28;45349;-68
2022/04/05 01:22:31;;;;;;;;;17.50;13.75;;;;;9.95;71.91;101139.13;5072131;28;45332;-68
2022/04/05 01:24:56;;;;;;;;;16.50;15.00;;;;;9.80;72.46;101138.59;5066155;28;45497;-68
2022/04/05 01:27:27;;;;;;;;;17.00;11.00;;;;;9.87;72.53;101119.94;5071944;28;45448;-68
2022/04/05 01:29:53;;;;;;;;;16.50;14.50;;;;;9.96;71.71;101130.84;5076777;28;45469;-68
2022/04/05 01:32:18;;;;;;;;;14.50;11.25;;;;;9.85;72.16;101122.81;5071955;28;45274;-68
2022/04/05 01:34:44;;;;;;;;;9.00;8.00;;;;;9.84;72.60;101126.50;5065084;28;45505;-68
2022/04/05 01:37:10;;;;;;;;;12.50;12.50;;;;;9.97;71.97;101121.72;5063820;28;46203;-68
2022/04/05 01:39:38;;;;;;;;;17.50;14.25;;;;;10.01;71.98;101115.00;5062480;28;45516;-68
2022/04/05 01:42:06;;;;;;;;;13.50;12.00;;;;;9.93;71.92;101114.84;5067618;28;45297;-68
2022/04/05 01:44:34;;;;;;;;;9.50;9.50;;;;;9.99;72.00;101122.44;5062443;28;45462;-68
2022/04/05 01:47:10;;;;;;;;;14.00;14.00;;;;;10.00;71.98;101112.44;5064703;27;46041;-69
2022/04/05 01:49:40;;;;;;;;;14.00;12.75;;;;;9.98;71.97;101126.16;5063467;28;45329;-68
2022/04/05 01:52:06;;;;;;;;;14.00;13.00;;;;;9.95;72.11;101115.56;5068484;28;45283;-68
2022/04/05 01:54:32;;;;;;;;;11.00;11.00;;;;;9.95;72.22;101114.69;5082231;28;45317;-68
2022/04/05 01:56:58;;;;;;;;;15.75;12.50;;;;;10.07;72.09;101109.06;5062539;28;45393;-68
2022/04/05 01:59:29;;;;;;;;;14.00;14.00;;;;;10.10;72.10;101111.47;5063019;28;45513;-69
2022/04/05 02:01:55;;;;;;;;;16.00;12.00;;;;;10.02;72.30;101105.88;5068775;28;45330;-68
2022/04/05 02:04:21;;;;;;;;;14.50;13.25;;;;;10.03;72.26;101088.59;5083275;28;45325;-68
2022/04/05 02:06:47;;;;;;;;;17.00;16.00;;;;;10.10;72.54;101100.63;5063221;28;46230;-69
2022/04/05 02:09:15;;;;;;;;;15.25;13.75;;;;;10.06;72.99;101104.63;5060574;28;45247;-67
2022/04/05 02:11:47;;;;;;;;;17.25;16.25;;;;;10.07;73.75;101100.91;5071756;28;45494;-67
2022/04/05 02:14:13;;;;;;;;;17.75;15.75;;;;;10.04;74.09;101094.88;5063452;28;45296;-67
2022/04/05 02:16:39;;;;;;;;;20.75;14.00;;;;;10.07;73.73;101111.78;5073112;28;45424;-68
2022/04/05 02:19:04;;;;;;;;;15.50;13.75;;;;;10.06;73.77;101110.06;5065405;28;45168;-68
2022/04/05 02:21:30;;;;;;;;;17.00;17.00;;;;;9.95;73.86;101104.69;5073883;28;45422;-69
2022/04/05 02:23:55;;;;;;;;;13.75;12.50;;;;;9.98;74.62;101109.00;5063162;28;45524;-68
2022/04/05 02:26:20;;;;;;;;;16.25;15.00;;;;;9.97;74.41;101112.72;5072825;28;45462;-68
2022/04/05 02:28:47;;;;;;;;;16.25;16.25;;;;;9.84;74.44;101112.06;5086604;27;45409;-68
2022/04/05 02:31:12;;;;;;;;;17.50;14.25;;;;;9.83;75.02;101103.06;5065928;27;45418;-68
2022/04/05 02:33:38;;;;;;;;;13.25;11.50;;;;;9.66;75.15;101090.13;5067280;28;45419;-68
2022/04/05 02:36:03;;;;;;;;;16.25;13.75;;;;;9.76;74.85;101102.75;5064358;28;45518;-68
2022/04/05 02:38:30;;;;;;;;;17.00;15.25;;;;;9.83;74.82;101089.50;5062315;28;45313;-68
2022/04/05 02:40:57;;;;;;;;;16.25;15.25;;;;;9.84;74.59;101095.78;5067634;28;45438;-67
2022/04/05 02:43:23;;;;;;;;;16.25;13.00;;;;;9.94;74.56;101093.97;5062542;28;45329;-67
2022/04/05 02:45:49;;;;;;;;;13.25;13.25;;;;;9.92;74.82;101093.25;5066985;28;46370;-67
2022/04/05 02:48:14;;;;;;;;;9.00;8.75;;;;;9.91;74.71;101097.84;5062258;28;45433;-68
2022/04/05 02:50:40;;;;;;;;;9.25;9.00;;;;;9.91;75.47;101095.13;5067407;28;45234;-67
2022/04/05 02:53:05;;;;;;;;;15.00;11.50;;;;;9.97;75.00;101100.00;5068940;28;45517;-69
2022/04/05 02:55:31;;;;;;;;;17.50;15.00;;;;;9.97;75.42;101082.84;5072221;28;46457;-68
2022/04/05 02:57:56;;;;;;;;;13.00;12.50;;;;;9.85;75.84;101079.38;5060865;28;45415;-68
2022/04/05 03:00:22;;;;;;;;;13.50;12.75;;;;;9.96;75.83;101086.56;5068866;28;45386;-68
2022/04/05 03:02:47;;;;;;;;;15.00;13.25;;;;;9.99;75.97;101084.44;5073544;28;45366;-68
2022/04/05 03:05:13;;;;;;;;;19.00;16.00;;;;;10.00;75.97;101085.31;5079872;28;46946;-68
2022/04/05 03:07:39;;;;;;;;;12.75;12.75;;;;;10.05;75.88;101093.88;5062928;27;45551;-68
2022/04/05 03:10:07;;;;;;;;;15.25;15.00;;;;;10.02;76.07;101088.72;5062106;28;45483;-68
2022/04/05 03:12:34;;;;;;;;;15.00;14.00;;;;;10.01;76.78;101090.56;5071318;28;45545;-68
2022/04/05 03:14:59;;;;;;;;;14.00;13.00;;;;;9.99;76.63;101086.31;5064079;28;45440;-67
2022/04/05 03:17:25;;;;;;;;;16.75;15.75;;;;;9.94;76.56;101083.97;5071466;28;45570;-67
2022/04/05 03:19:50;;;;;;;;;15.50;12.50;;;;;9.94;77.32;101083.97;5065559;27;45342;-67
2022/04/05 03:22:18;;;;;;;;;11.75;10.00;;;;;9.91;77.36;101078.84;5074935;28;45499;-67
2022/04/05 03:24:43;;;;;;;;;12.25;12.25;;;;;9.98;77.54;101082.72;5066392;28;46665;-67
2022/04/05 03:27:09;;;;;;;;;15.25;14.50;;;;;9.99;77.81;101087.16;5080574;28;45773;-68
2022/04/05 03:29:34;;;;;;;;;14.00;12.25;;;;;9.99;77.59;101070.00;5089767;27;45390;-67
2022/04/05 03:32:01;;;;;;;;;11.00;11.00;;;;;9.94;77.54;101080.41;5076447;28;45225;-69
2022/04/05 03:34:27;;;;;;;;;12.00;10.25;;;;;9.91;77.95;101073.41;5065024;28;45370;-67
2022/04/05 03:36:52;;;;;;;;;10.75;10.25;;;;;9.86;78.09;101072.09;5079521;28;45964;-68
2022/04/05 03:39:17;;;;;;;;;12.00;12.00;;;;;9.92;78.52;101074.28;5065003;28;45310;-67
2022/04/05 03:41:44;;;;;;;;;17.25;14.00;;;;;9.96;77.94;101073.00;5070480;28;45548;-70
2022/04/05 03:44:10;;;;;;;;;16.75;12.00;;;;;9.97;78.41;101072.00;5064966;28;46321;-68
2022/04/05 03:46:36;;;;;;;;;14.50;13.00;;;;;9.89;78.32;101064.53;5079418;28;45457;-68
2022/04/05 03:49:01;;;;;;;;;12.50;12.25;;;;;9.93;78.52;101060.56;5063929;28;45498;-68
2022/04/05 03:51:27;;;;;;;;;15.75;13.50;;;;;9.95;78.33;101054.97;5070409;28;45398;-68
2022/04/05 03:53:54;;;;;;;;;12.00;11.75;;;;;9.94;78.38;101051.41;5064469;28;46744;-68
2022/04/05 03:56:20;;;;;;;;;11.75;11.75;;;;;9.98;78.13;101057.44;5065314;28;45448;-68
2022/04/05 03:58:45;;;;;;;;;22.50;19.00;;;;;9.82;78.40;101057.94;5065968;28;45284;-67
2022/04/05 04:01:11;;;;;;;;;12.00;11.25;;;;;9.79;79.02;101055.47;5065507;28;45304;-68
2022/04/05 04:03:36;;;;;;;;;15.25;11.00;;;;;9.87;78.95;101062.94;5074969;28;47963;-68
2022/04/05 04:06:01;;;;;;;;;12.00;11.00;;;;;9.89;79.14;101059.09;5066494;28;45307;-68
2022/04/05 04:08:27;;;;;;;;;14.75;12.00;;;;;9.92;78.79;101063.41;5076513;28;45876;-68
2022/04/05 04:10:52;;;;;;;;;11.50;11.50;;;;;9.74;79.28;101053.19;5071541;28;45290;-68
2022/04/05 04:13:19;;;;;;;;;11.75;11.75;;;;;9.78;79.30;101056.50;5069147;28;45167;-67
2022/04/05 04:15:44;;;;;;;;;13.25;12.00;;;;;9.70;79.80;101051.75;5069070;28;45404;-67
2022/04/05 04:18:10;;;;;;;;;12.75;11.00;;;;;9.77;80.09;101046.63;5088095;27;45335;-67
2022/04/05 04:20:38;;;;;;;;;9.67;9.67;;;;;9.86;79.78;101053.97;5068548;28;45426;-67
2022/04/05 04:23:04;;;;;;;;;10.75;10.75;;;;;9.89;79.77;101053.69;5071081;27;45719;-67
2022/04/05 04:25:30;;;;;;;;;10.25;10.25;;;;;9.94;79.86;101056.84;5067038;28;45455;-68
2022/04/05 04:27:55;;;;;;;;;13.00;11.33;;;;;9.83;80.04;101048.81;5087016;27;45310;-68
2022/04/05 04:30:21;;;;;;;;;15.33;11.33;;;;;9.86;80.30;101053.09;5085155;27;45666;-69
2022/04/05 04:32:46;;;;;;;;;14.00;12.00;;;;;9.89;80.24;101042.81;5067375;28;48366;-68
2022/04/05 04:35:12;;;;;;;;;18.33;13.00;;;;;9.73;80.35;101046.03;5066161;28;45574;-68
2022/04/05 04:37:37;;;;;;;;;12.00;11.00;;;;;9.81;80.94;101056.22;5062129;28;45752;-69
2022/04/05 04:40:04;;;;;;;;;12.33;12.00;;;;;9.81;80.60;101056.22;5067647;28;45238;-68
2022/04/05 04:42:33;;;;;;;;;11.33;9.00;;;;;9.85;80.60;101054.97;5070992;28;47469;-69
2022/04/05 04:44:58;;;;;;;;;13.00;11.75;;;;;9.81;80.23;101055.34;5065884;28;45465;-69
2022/04/05 04:47:23;;;;;;;;;11.67;11.00;;;;;9.70;80.78;101049.03;5070919;28;45809;-68
2022/04/05 04:49:49;;;;;;;;;14.00;12.25;;;;;9.62;81.27;101039.84;5066045;28;45223;-68
2022/04/05 04:52:14;;;;;;;;;11.00;11.00;;;;;9.75;81.34;101054.91;5064075;27;45358;-68
2022/04/05 04:54:39;;;;;;;;;12.00;10.25;;;;;9.70;81.25;101045.47;5064144;28;45452;-69
2022/04/05 04:57:05;;;;;;;;;11.25;11.00;;;;;9.69;81.47;101041.88;5069348;28;45412;-68
2022/04/05 04:59:30;;;;;;;;;10.33;10.33;;;;;9.79;81.87;101041.09;5081170;28;45302;-67
2022/04/05 05:01:56;;;;;;;;;15.00;12.25;;;;;9.74;81.43;101039.63;5075535;28;47133;-68
2022/04/05 05:04:21;;;;;;;;;13.00;12.50;;;;;9.67;81.51;101040.28;5072807;28;45209;-69
2022/04/05 05:06:46;;;;;;;;;15.00;12.25;;;;;9.81;81.58;101042.66;5063770;28;45333;-69
2022/04/05 05:09:12;;;;;;;;;11.50;10.00;;;;;9.81;81.40;101044.50;5069844;28;45519;-69
2022/04/05 05:11:37;;;;;;;;;12.00;9.00;;;;;9.92;81.12;101039.00;5070182;27;47083;-69
2022/04/05 05:14:03;;;;;;;;;12.25;11.25;;;;;9.89;80.99;101036.53;5061928;28;45373;-69
2022/04/05 05:16:29;;;;;;;;;15.00;13.25;;;;;9.95;80.71;101041.41;5068675;28;45453;-68
2022/04/05 05:18:54;;;;;;;;;15.00;13.25;;;;;9.86;80.79;101029.53;5065976;27;45561;-68
2022/04/05 05:21:20;;;;;;;;;18.50;15.25;;;;;9.99;80.78;101041.00;5067165;28;45735;-69
2022/04/05 05:23:45;;;;;;;;;15.25;12.00;;;;;10.02;81.09;101051.59;5072123;28;45455;-70
2022/04/05 05:26:11;;;;;;;;;13.25;13.00;;;;;9.95;80.47;101022.41;5065297;27;45469;-71
2022/04/05 05:28:36;;;;;;;;;13.00;13.00;;;;;10.04;80.46;101046.88;5081224;27;45403;-70
2022/04/05 05:31:02;;;;;;;;;11.75;11.75;;;;;10.03;80.47;101034.31;5063453;28;47282;-70
2022/04/05 05:33:27;;;;;;;;;13.00;10.50;;;;;9.91;80.50;101035.41;5060914;28;45657;-70
2022/04/05 05:35:53;;;;;;;;;13.00;12.50;;;;;10.07;80.21;101046.63;5064828;28;45680;-70
2022/04/05 05:38:19;;;;;;;;;14.00;10.75;;;;;10.12;80.00;101038.03;5069064;28;45616;-70
2022/04/05 05:40:44;;;;;;;;;18.00;16.00;;;;;10.10;79.99;101037.31;5072956;28;45438;-70
2022/04/05 05:43:10;;;;;;;;;13.75;13.75;;;;;10.09;80.21;101041.03;5061477;28;45425;-70
2022/04/05 05:45:36;;;;;;;;;16.00;13.75;;;;;9.98;80.51;101042.00;5067267;28;45434;-70
2022/04/05 05:48:03;;;;;;;;;15.50;14.00;;;;;10.06;80.57;101041.31;5070222;28;45535;-70
2022/04/05 05:50:29;;;;;;;;;15.75;14.25;;;;;10.12;79.67;101033.47;5065325;28;47174;-70
2022/04/05 05:52:55;;;;;;;;;17.75;16.25;;;;;10.12;80.03;101041.63;5074015;28;45226;-70
2022/04/05 05:55:21;;;;;;;;;19.00;17.25;;;;;10.06;79.73;101039.47;5074553;27;45532;-70
2022/04/05 05:57:47;;;;;;;;;20.50;16.50;;;;;10.09;80.29;101038.31;5072961;28;45553;-69
2022/04/05 06:00:21;;;;;;;;;19.50;17.75;;;;;10.09;80.01;101051.88;5075480;27;45955;-70
2022/04/05 06:02:49;;;;;;;;;15.75;15.25;;;;;10.00;80.15;101048.16;5071283;28;45284;-70
2022/04/05 06:05:14;;;;;;;;;19.00;19.00;;;;;10.09;80.38;101055.47;5075075;28;45302;-70
2022/04/05 06:07:41;;;;;;;;;24.75;21.00;;;;;10.14;79.71;101055.94;5061736;28;45362;-70
2022/04/05 06:10:07;;;;;;;;;17.25;16.50;;;;;10.17;79.67;101052.09;5063774;28;47435;-69
2022/04/05 06:12:37;;;;;;;;;17.00;14.50;;;;;10.15;79.83;101051.34;5070421;28;45271;-70
2022/04/05 06:15:02;;;;;;;;;18.00;18.00;;;;;10.14;79.67;101057.78;5062420;28;45330;-70
2022/04/05 06:17:28;;;;;;;;;22.50;17.50;;;;;10.10;80.22;101053.59;5071933;28;45426;-70
2022/04/05 06:19:53;;;;;;;;;18.25;17.75;;;;;10.15;79.85;101063.03;5062986;28;45459;-69
2022/04/05 06:22:19;;;;;;;;;19.25;18.00;;;;;10.21;80.17;101074.41;5067850;28;45361;-70
2022/04/05 06:24:46;;;;;;;;;19.75;16.50;;;;;10.23;79.67;101072.44;5061845;28;45307;-70
2022/04/05 06:27:12;;;;;;;;;14.50;13.00;;;;;10.30;80.09;101070.88;5076762;28;45586;-69
2022/04/05 06:29:37;;;;;;;;;19.25;16.25;;;;;10.37;79.48;101072.91;5086070;27;46267;-69
2022/04/05 06:32:03;;;;;;;;;13.00;13.00;;;;;10.39;79.31;101073.59;5066585;28;45470;-69
2022/04/05 06:34:29;;;;;;;;;20.75;16.25;;;;;10.46;79.53;101071.16;5080457;28;45285;-69
2022/04/05 06:36:54;;;;;;;;;12.25;12.00;;;;;10.32;80.64;101087.88;5064997;28;45453;-70
2022/04/05 06:39:20;;;;;;;;;20.25;16.25;;;;;10.31;81.58;101084.28;5060271;28;45555;-70
2022/04/05 06:41:45;;;;;;;;;17.50;16.25;;;;;10.42;81.16;101083.31;5072333;28;45493;-69
2022/04/05 06:44:11;;;;;;;;;14.67;13.00;;;;;10.43;81.62;101085.06;5059346;28;45368;-69
2022/04/05 06:46:36;;;;;;;;;22.00;15.00;;;;;10.37;82.35;101074.75;5064626;28;45331;-70
2022/04/05 06:49:03;;;;;;;;;17.25;12.25;;;;;10.40;82.26;101079.88;5059901;28;47176;-70
2022/04/05 06:51:29;;;;;;;;;14.75;14.75;;;;;10.40;82.47;101079.88;5066388;28;45466;-70
2022/04/05 06:53:56;;;;;;;;;10.00;9.25;;;;;10.43;82.96;101074.19;5066444;28;45338;-70
2022/04/05 06:56:25;;;;;;;;;16.25;12.25;;;;;10.50;82.47;101078.06;5073305;28;45263;-70
2022/04/05 06:58:51;;;;;;;;;17.75;16.00;;;;;10.55;82.23;101075.78;5063678;27;47303;-70
2022/04/05 07:01:16;;;;;;;;;23.00;15.33;;;;;10.52;82.32;101076.03;5066493;28;45391;-70
2022/04/05 07:03:41;;;;;;;;;15.25;13.25;;;;;10.56;82.33;101074.78;5098782;27;45278;-71
2022/04/05 07:06:07;;;;;;;;;16.25;15.75;;;;;10.61;81.95;101083.34;5070773;27;45562;-70
2022/04/05 07:08:32;;;;;;;;;15.25;15.25;;;;;10.61;82.10;101072.50;5081543;28;45336;-70
2022/04/05 07:10:57;;;;;;;;;17.75;15.75;;;;;10.69;81.77;101066.34;5077132;28;45473;-70
2022/04/05 07:13:23;;;;;;;;;17.50;11.00;;;;;10.77;81.35;101072.81;5065376;28;45368;-70
2022/04/05 07:15:48;;;;;;;;;13.00;10.25;;;;;10.83;80.96;101068.66;5070089;28;45557;-69
2022/04/05 07:18:14;;;;;;;;;10.50;8.25;;;;;10.80;81.97;101067.09;5072825;27;47137;-70
2022/04/05 07:20:39;;;;;;;;;17.75;11.00;;;;;10.86;81.28;101074.69;5070068;28;45394;-70
2022/04/05 07:23:05;;;;;;;;;9.67;9.67;;;;;10.96;81.26;101080.09;5070325;28;45329;-71
2022/04/05 07:25:32;;;;;;;;;19.00;14.50;;;;;11.06;81.23;101080.09;5067494;28;45631;-70
2022/04/05 07:27:58;;;;;;;;;16.25;14.75;;;;;11.07;80.86;101076.38;5082102;27;45431;-70
2022/04/05 07:30:24;;;;;;;;;12.67;11.00;;;;;11.06;81.01;101077.38;5084317;27;45781;-70
2022/04/05 07:32:50;;;;;;;;;13.75;13.75;;;;;10.91;81.24;101064.22;5073507;28;45341;-69
2022/04/05 07:35:17;;;;;;;;;13.33;13.33;;;;;10.77;81.69;101061.94;5066805;28;45515;-68
2022/04/05 07:37:43;;;;;;;;;11.00;9.67;;;;;10.79;81.94;101081.69;5079975;28;45456;-69
2022/04/05 07:40:10;;;;;;;;;12.00;10.33;;;;;10.77;82.92;101071.94;5080902;28;45289;-69
2022/04/05 07:42:37;;;;;;;;;9.33;9.33;;;;;10.92;82.70;101076.81;5066787;28;45239;-69
2022/04/05 07:45:02;;;;;;;;;10.33;10.33;;;;;10.97;82.12;101084.53;5065764;28;45424;-70
2022/04/05 07:47:28;;;;;;;;;15.33;11.00;;;;;10.92;81.92;101087.69;5067334;27;46026;-70
2022/04/05 07:49:53;;;;;;;;;17.33;11.00;;;;;10.82;82.23;101080.50;5064663;28;45312;-70
2022/04/05 07:52:19;;;;;;;;;17.00;12.33;;;;;10.89;82.70;101079.81;5071231;28;45229;-70
2022/04/05 07:54:44;;;;;;;;;12.67;11.00;;;;;10.95;82.58;101078.41;5083487;27;45191;-68
2022/04/05 07:57:10;;;;;;;;;13.00;12.00;;;;;11.07;82.08;101079.97;5064635;28;46280;-71
2022/04/05 07:59:36;;;;;;;;;12.75;12.75;;;;;10.87;81.50;101070.97;5064835;28;45488;-70
2022/04/05 08:02:03;;;;;;;;;17.67;14.67;;;;;11.02;82.25;101082.28;5070650;28;45445;-70
2022/04/05 08:04:28;;;;;;;;;19.00;18.00;;;;;11.10;82.19;101084.28;5084077;27;45529;-70
2022/04/05 08:06:53;;;;;;;;;28.00;24.75;;;;;11.13;81.62;101073.09;5063945;28;46136;-70
2022/04/05 08:09:19;;;;;;;;;24.50;21.00;;;;;10.91;81.95;101083.25;5063208;28;45453;-71
2022/04/05 08:11:44;;;;;;;;;18.75;17.75;;;;;10.67;82.35;101071.91;5072394;28;45514;-70
2022/04/05 08:14:10;;;;;;;;;25.75;21.25;;;;;10.85;83.12;101091.13;5065113;28;45316;-71
2022/04/05 08:16:35;;;;;;;;;14.25;12.75;;;;;10.83;82.79;101071.38;5068930;28;48346;-70
2022/04/05 08:19:00;;;;;;;;;18.50;18.00;;;;;10.92;82.77;101076.81;5067964;27;45299;-71
2022/04/05 08:21:26;;;;;;;;;16.00;15.25;;;;;11.09;82.36;101082.56;5069085;28;45315;-70
2022/04/05 08:23:52;;;;;;;;;21.00;13.00;;;;;11.20;82.27;101075.09;5064370;28;45238;-70
2022/04/05 08:26:18;;;;;;;;;13.33;11.67;;;;;11.31;82.49;101088.56;5073057;28;45583;-70
2022/04/05 08:28:44;;;;;;;;;17.00;13.33;;;;;11.42;81.87;101090.22;5088301;27;45355;-70
2022/04/05 08:31:10;;;;;;;;;14.33;14.33;;;;;11.46;81.32;101080.78;5074644;27;45352;-67
2022/04/05 08:33:35;;;;;;;;;14.25;13.00;;;;;11.52;81.24;101082.94;5075082;27;45444;-69
2022/04/05 08:36:00;;;;;;;;;12.00;12.00;;;;;11.55;81.13;101090.78;5065563;28;45467;-69
2022/04/05 08:38:28;;;;;;;;;17.25;14.25;;;;;11.50;81.45;101084.94;5063553;28;45276;-70
2022/04/05 08:40:55;;;;;;;;;19.50;18.50;;;;;11.60;81.77;101088.50;5065748;28;45549;-70
2022/04/05 08:43:20;;;;;;;;;14.75;14.75;;;;;11.60;81.70;101080.34;5070784;27;45441;-70
2022/04/05 08:45:57;;;;;;;;;21.25;17.50;;;;;11.43;81.75;101083.78;5069135;28;46566;-70
2022/04/05 08:48:26;;;;;;;;;18.00;13.50;;;;;11.52;82.33;101072.03;5069093;28;45285;-70
2022/04/05 08:50:52;;;;;;;;;14.33;12.67;;;;;11.44;81.89;101085.50;5068222;28;45522;-70
2022/04/05 08:53:18;;;;;;;;;14.00;14.00;;;;;11.51;82.05;101086.66;5068357;27;45446;-70
2022/04/05 08:55:45;;;;;;;;;15.00;15.00;;;;;11.53;81.74;101084.66;5064157;28;45311;-70
2022/04/05 08:58:10;;;;;;;;;19.00;15.75;;;;;11.60;81.45;101077.63;5076867;28;45319;-70
2022/04/05 09:00:35;;;;;;;;;13.50;13.50;;;;;11.54;81.49;101089.06;5077069;27;45731;-71
2022/04/05 09:03:04;;;;;;;;;18.00;15.00;;;;;11.54;81.42;101080.91;5064074;28;45564;-69
2022/04/05 09:05:38;;;;;;;;;17.33;13.33;;;;;11.64;81.11;101079.03;5066601;28;46104;-69
2022/04/05 09:08:13;;;;;;;;;16.00;14.50;;;;;11.86;81.47;101071.53;5062865;28;45468;-70
2022/04/05 09:10:40;;;;;;;;;16.75;15.00;;;;;11.76;80.50;101065.28;5068241;28;45345;-69
2022/04/05 09:13:09;;;;;;;;;14.75;13.25;;;;;11.82;80.94;101073.72;5072122;28;45339;-70
2022/04/05 09:15:35;;;;;;;;;19.00;15.00;;;;;11.91;80.67;101075.53;5064012;28;47514;-71
2022/04/05 09:18:01;;;;;;;;;21.50;15.75;;;;;11.91;80.26;101063.78;5071229;28;45231;-70
2022/04/05 09:20:27;;;;;;;;;6.67;6.67;;;;;11.96;79.71;101072.38;5065873;28;45364;-70
2022/04/05 09:22:54;;;;;;;;;16.00;11.00;;;;;12.17;79.50;101073.00;5073031;28;45435;-70
2022/04/05 09:25:20;;;;;;;;;13.50;10.25;;;;;12.08;78.99;101079.34;5064018;28;47290;-70
2022/04/05 09:27:47;;;;;;;;;16.50;11.25;;;;;12.18;79.40;101076.56;5078483;27;45377;-70
2022/04/05 09:30:17;;;;;;;;;10.75;9.75;;;;;12.23;78.44;101075.09;5084273;27;45380;-70
2022/04/05 09:32:48;;;;;;;;;14.00;14.00;;;;;12.15;78.81;101083.16;5071962;28;45279;-70
2022/04/05 09:35:18;;;;;;;;;21.00;16.75;;;;;12.21;79.06;101081.69;5063560;28;47265;-70
2022/04/05 09:37:44;;;;;;;;;14.00;9.67;;;;;12.14;78.44;101076.00;5069845;28;45649;-70
2022/04/05 09:40:15;;;;;;;;;17.75;16.75;;;;;12.43;78.29;101090.31;5064421;28;45440;-70
2022/04/05 09:43:00;;;;;;;;;12.67;8.67;;;;;12.63;77.37;101087.50;5062996;28;45261;-71
2022/04/05 09:46:01;;;;;;;;;15.00;12.33;;;;;12.62;77.33;101080.34;5067263;28;45463;-70
2022/04/05 09:48:36;;;;;;;;;9.67;9.67;;;;;12.55;77.45;101080.09;5031707;28;45360;-70
2022/04/05 09:51:10;;;;;;;;;13.50;11.50;;;;;12.40;77.08;101079.75;5063244;28;45281;-70
2022/04/05 09:53:39;;;;;;;;;15.50;14.25;;;;;12.44;77.89;101078.41;5066621;27;45604;-70
2022/04/05 09:56:06;;;;;;;;;19.00;15.00;;;;;12.44;77.72;101077.56;5067650;28;45464;-70
2022/04/05 09:58:31;;;;;;;;;14.33;11.33;;;;;12.55;77.46;101080.09;5062564;28;45427;-70
2022/04/05 10:01:11;;;;;;;;;22.00;18.67;;;;;12.68;77.67;101080.56;5065281;28;45465;-70
2022/04/05 10:04:04;;;;;;;;;17.50;15.75;;;;;12.38;77.21;101084.50;5075984;28;46343;-70
2022/04/05 10:06:31;;;;;;;;;16.67;15.33;;;;;12.36;77.91;101083.78;5080535;28;47773;-70
2022/04/05 10:09:01;;;;;;;;;18.33;16.00;;;;;12.26;78.34;101080.25;5070800;27;45470;-69
2022/04/05 10:11:30;;;;;;;;;17.33;14.00;;;;;12.29;78.33;101085.38;5081622;27;44742;-69
2022/04/05 10:13:58;;;;;;;;;17.00;14.67;;;;;12.53;78.07;101075.78;5087651;28;44789;-69
2022/04/05 10:16:25;;;;;;;;;11.33;10.67;;;;;12.53;77.00;101081.25;5072558;28;47225;-70
2022/04/05 10:18:53;;;;;;;;;13.33;12.00;;;;;12.40;77.87;101085.19;5070582;28;45209;-69
2022/04/05 10:21:20;;;;;;;;;14.00;14.00;;;;;12.15;78.42;101088.63;5068738;28;45479;-69
2022/04/05 10:23:47;;;;;;;;;14.33;14.33;;;;;12.18;78.63;101088.31;5063888;28;45541;-71
2022/04/05 10:26:19;;;;;;;;;17.67;15.00;;;;;12.01;78.40;101078.22;5070367;28;45530;-69
2022/04/05 10:28:48;;;;;;;;;13.67;13.67;;;;;12.14;79.00;101091.47;5087371;27;46001;-71
2022/04/05 10:31:19;;;;;;;;;18.33;15.33;;;;;12.28;78.76;101080.94;5079318;27;45494;-70
2022/04/05 10:34:07;;;;;;;;;14.67;12.00;;;;;12.43;78.14;101079.44;5068795;28;45287;-71
2022/04/05 10:36:33;;;;;;;;;14.00;13.00;;;;;12.21;78.45;101087.16;5068526;28;46436;-70
2022/04/05 10:39:22;;;;;;;;;12.67;11.67;;;;;12.40;78.76;101084.34;5066072;28;45326;-71
2022/04/05 10:42:25;;;;;;;;;13.33;12.33;;;;;12.18;78.06;101088.31;5073555;28;45417;-70
2022/04/05 10:45:15;;;;;;;;;14.00;14.00;;;;;12.09;78.90;101075.59;5045331;28;45340;-71
2022/04/05 10:47:57;;;;;;;;;15.00;15.00;;;;;12.43;78.60;101078.56;5065111;28;45659;-70
2022/04/05 10:50:22;;;;;;;;;14.67;14.00;;;;;12.56;78.08;101076.38;5069685;28;45286;-71
2022/04/05 10:53:08;;;;;;;;;15.67;12.67;;;;;12.62;77.42;101078.47;5066659;28;45349;-71
2022/04/05 10:55:33;;;;;;;;;11.00;11.00;;;;;12.84;76.86;101066.25;5066301;28;45393;-71
2022/04/05 10:58:10;;;;;;;;;15.67;14.00;;;;;12.85;77.07;101062.53;5077060;28;46458;-71
2022/04/05 11:00:35;;;;;;;;;16.00;15.00;;;;;12.86;76.52;101059.63;5075207;27;45516;-71
2022/04/05 11:03:04;;;;;;;;;15.00;13.50;;;;;12.72;77.02;101064.75;5073722;28;45399;-71
2022/04/05 11:05:38;;;;;;;;;8.33;8.33;;;;;12.97;76.92;101060.41;5069127;28;45394;-71
2022/04/05 11:08:10;;;;;;;;;15.00;8.00;;;;;12.98;76.17;101067.59;5079476;28;48165;-71
2022/04/05 11:10:36;;;;;;;;;11.67;11.67;;;;;12.99;76.68;101075.63;5081396;28;45375;-68
2022/04/05 11:13:13;;;;;;;;;11.33;11.33;;;;;13.11;76.28;101068.91;5069775;28;45393;-71